Thorold, Canada
Current Conditions -  °F | °C
As of 7:00 PM on Friday 24 Oct 2014 (Local Time) from CYSN Reporting Station
Few Clouds Few Clouds  
Wind Chill: 45°   Ceiling: Unl
Heat Index: 48°   Visibility: 15mi
Dew Point: 41°   Wind: 8mph
Humidity: 76%   Direction: 210°SSW
Pressure: 29.95"   Gusts: NA
Location:  43.12°N, 79.2°W
Report Text: CYSN 242300Z 21007KT 15SM FEW250 09/05 A2995 RMK CI2 SLP144
Loading
Personal Weather Stations






























Interactive Weather Map
Tropical Storm Tracking
New forecast layout! Learn more

10-Day Weather Forecast

Advertisements
Track Severe Weather on mobile